Temp: 10.8°C   Baro: 992.6mb
  Wind: 4.0mph   Dir: SE (145°)
  Rain: 1.6mm (2.0mm/hr)
  Solar: 0W/m2  Hum: 79%
 
Bath Spa Weather Station Historical Data
Daily Summary for December 16, 2019 Units:  English    Metric   Both
Daily Weekly Monthly Yearly Custom
  High: Low: Average:
Temperature: 49.4 °F 40.1 °F 43.1 °F
Dew Point: 43 °F 37 °F 39.5 °F
Humidity: 93% 76.4% 87%
Wind Speed: 7mph 0mph 1.1mph
Wind Gust: 13mph - -
Wind- - SW
Pressure: 29.54 in 29.44 in -
Precipitation: 0.00 in    
Historical Graphs
 
 
Tabular Data for December 16, 2019
Time Temperature Dew Point Pressure Wind Wind Speed Wind Gust Humidity Rainfall Rate (Hourly) solar
00:04 43.7 °F 40.4 °F 29.44 in SSW 3.4 mph 8 mph 87.8% 0.00 in 0 W/m2
00:09 43.9 °F 40.6 °F 29.44 in SW 5.7 mph 11 mph 88% 0.00 in 0 W/m2
00:14 44 °F 40.7 °F 29.44 in SW 4.8 mph 11 mph 88% 0.00 in 0 W/m2
00:19 44.1 °F 40.5 °F 29.44 in SW 3 mph 9 mph 87% 0.00 in 0 W/m2
00:24 44.1 °F 40.5 °F 29.44 in SSW 3.6 mph 8 mph 87% 0.00 in 0 W/m2
00:29 44.2 °F 40.6 °F 29.44 in SW 6 mph 9 mph 87% 0.00 in 0 W/m2
00:34 44.2 °F 40.6 °F 29.44 in SSW 5.6 mph 9 mph 87% 0.00 in 0 W/m2
00:39 44.3 °F 40.4 °F 29.44 in SSW 7 mph 12 mph 86% 0.00 in 0 W/m2
00:44 44.4 °F 40.3 °F 29.44 in SSW 5.1 mph 13 mph 85.2% 0.00 in 0 W/m2
00:49 44.4 °F 40.2 °F 29.45 in SW 4.5 mph 13 mph 84.8% 0.00 in 0 W/m2
00:54 44.3 °F 39.8 °F 29.45 in WSW 5 mph 9 mph 84% 0.00 in 0 W/m2
00:59 44.2 °F 39.7 °F 29.45 in WSW 3.8 mph 9 mph 84% 0.00 in 0 W/m2
01:04 44.1 °F 39.6 °F 29.45 in WSW 4.2 mph 8 mph 84% 0.00 in 0 W/m2
01:09 44.1 °F 39.6 °F 29.45 in WSW 2.7 mph 8 mph 84% 0.00 in 0 W/m2
01:14 43.9 °F 39.4 °F 29.45 in WSW 2.5 mph 8 mph 84% 0.00 in 0 W/m2
01:19 43.9 °F 39.4 °F 29.45 in WSW 4.2 mph 7 mph 84% 0.00 in 0 W/m2
01:24 43.9 °F 39.4 °F 29.45 in West 2.1 mph 6 mph 84% 0.00 in 0 W/m2
01:29 43.8 °F 39.3 °F 29.45 in West 3.2 mph 8 mph 84% 0.00 in 0 W/m2
01:34 43.8 °F 39.6 °F 29.45 in West 2.8 mph 6 mph 84.8% 0.00 in 0 W/m2
01:39 43.8 °F 39.7 °F 29.45 in WSW 3.8 mph 7 mph 85% 0.00 in 0 W/m2
01:44 43.7 °F 39.6 °F 29.45 in WSW 0.8 mph 4 mph 85% 0.00 in 0 W/m2
01:49 43.7 °F 39.6 °F 29.46 in WSW 2.3 mph 5 mph 85% 0.00 in 0 W/m2
01:54 43.5 °F 39.4 °F 29.46 in WSW 0.9 mph 5 mph 85% 0.00 in 0 W/m2
01:59 43.4 °F 39.3 °F 29.46 in WSW 4 mph 8 mph 85% 0.00 in 0 W/m2
02:04 43.4 °F 39.3 °F 29.46 in West 2.4 mph 8 mph 85% 0.00 in 0 W/m2
02:09 43.3 °F 39.2 °F 29.46 in West 1.7 mph 7 mph 85% 0.00 in 0 W/m2
02:14 43.3 °F 39.1 °F 29.47 in WSW 3.5 mph 7 mph 85% 0.00 in 0 W/m2
02:19 43.3 °F 39.2 °F 29.46 in WSW 4.1 mph 9 mph 85% 0.00 in 0 W/m2
02:24 43.5 °F 39.4 °F 29.47 in SW 3.1 mph 8 mph 85% 0.00 in 0 W/m2
02:29 43.5 °F 39.2 °F 29.47 in WSW 1.4 mph 6 mph 84.6% 0.00 in 0 W/m2
02:34 43.4 °F 38.9 °F 29.47 in SW 3 mph 10 mph 84% 0.00 in 0 W/m2
02:38 43.5 °F 39 °F 29.47 in SW 2.2 mph 10 mph 84% 0.00 in 0 W/m2
02:44 43.5 °F 39 °F 29.47 in WSW 3.2 mph 7 mph 84% 0.00 in 0 W/m2
02:49 43.5 °F 39 °F 29.47 in SW 5.8 mph 11 mph 84% 0.00 in 0 W/m2
02:54 43.8 °F 39 °F 29.47 in SW 3.6 mph 8 mph 83.4% 0.00 in 0 W/m2
02:59 43.9 °F 39 °F 29.47 in SW 5 mph 10 mph 83% 0.00 in 0 W/m2
03:04 43.9 °F 39 °F 29.47 in SSW 3.7 mph 11 mph 82.8% 0.00 in 0 W/m2
03:09 44.1 °F 38.8 °F 29.47 in SSW 4.6 mph 8 mph 82% 0.00 in 0 W/m2
03:14 44.1 °F 38.8 °F 29.47 in SW 6 mph 9 mph 82% 0.00 in 0 W/m2
03:19 44.1 °F 38.8 °F 29.47 in SW 2.7 mph 9 mph 82% 0.00 in 0 W/m2
03:24 43.8 °F 38.6 °F 29.47 in SW 0.5 mph 5 mph 82% 0.00 in 0 W/m2
03:29 43.5 °F 38.5 °F 29.47 in SSW 2 mph 6 mph 82% 0.00 in 0 W/m2
03:34 43.3 °F 38.4 °F 29.47 in SSW 0.6 mph 5 mph 82.4% 0.00 in 0 W/m2
03:39 43.2 °F 38.3 °F 29.47 in SSW 3.6 mph 8 mph 83% 0.00 in 0 W/m2
03:44 43.1 °F 38.2 °F 29.47 in SSW 2.8 mph 6 mph 83% 0.00 in 0 W/m2
03:49 43 °F 38.2 °F 29.47 in SSW 2.5 mph 5 mph 83.2% 0.00 in 0 W/m2
03:54 43 °F 38.5 °F 29.47 in SSW 1.2 mph 5 mph 84% 0.00 in 0 W/m2
03:59 43 °F 38.5 °F 29.47 in SSW 2 mph 5 mph 84% 0.00 in 0 W/m2
04:04 42.8 °F 38.3 °F 29.47 in South 3.8 mph 7 mph 84% 0.00 in 0 W/m2
04:09 42.7 °F 38.2 °F 29.47 in South 2.1 mph 7 mph 84% 0.00 in 0 W/m2
04:14 42.8 °F 38.6 °F 29.47 in South 0.9 mph 5 mph 84.6% 0.00 in 0 W/m2
04:19 43 °F 38.5 °F 29.47 in SSW 2.5 mph 5 mph 84.2% 0.00 in 0 W/m2
04:24 43.1 °F 38.6 °F 29.47 in SSW 2 mph 5 mph 84% 0.00 in 0 W/m2
04:29 43.2 °F 38.7 °F 29.47 in SSW 1.5 mph 4 mph 84% 0.00 in 0 W/m2
04:34 43.1 °F 38.6 °F 29.47 in SSW 1.6 mph 5 mph 84% 0.00 in 0 W/m2
04:39 43.1 °F 38.6 °F 29.47 in SSW 1.6 mph 5 mph 84% 0.00 in 0 W/m2
04:44 43 °F 38.5 °F 29.47 in SSW 1.4 mph 7 mph 84% 0.00 in 0 W/m2
04:49 43 °F 38.5 °F 29.47 in SSW 0.8 mph 5 mph 84% 0.00 in 0 W/m2
04:54 42.8 °F 38.7 °F 29.47 in SSW 0.6 mph 7 mph 85% 0.00 in 0 W/m2
04:59 42.9 °F 38.7 °F 29.47 in SSW 0.8 mph 7 mph 85% 0.00 in 0 W/m2
05:04 42.8 °F 38.7 °F 29.47 in SSW 0.8 mph 3 mph 85% 0.00 in 0 W/m2
05:09 42.7 °F 38.6 °F 29.47 in SSW 1 mph 4 mph 85% 0.00 in 0 W/m2
05:14 42.6 °F 38.5 °F 29.48 in SSW 2.2 mph 5 mph 85% 0.00 in 0 W/m2
05:19 42.6 °F 38.5 °F 29.48 in SSW 2.8 mph 7 mph 85% 0.00 in 0 W/m2
05:24 42.7 °F 38.6 °F 29.48 in SSW 1.2 mph 7 mph 85% 0.00 in 0 W/m2
05:29 42.8 °F 38.7 °F 29.48 in SSW 2.9 mph 8 mph 85% 0.00 in 0 W/m2
05:34 42.9 °F 38.7 °F 29.48 in SSW 3.1 mph 9 mph 85% 0.00 in 0 W/m2
05:39 42.8 °F 38.6 °F 29.48 in Calm   6 mph 85% 0.00 in 0 W/m2
05:44 42.5 °F 38.4 °F 29.48 in SSW 1.2 mph 6 mph 85% 0.00 in 0 W/m2
05:49 42.5 °F 38.3 °F 29.48 in SSW 4 mph 11 mph 85% 0.00 in 0 W/m2
05:54 42.6 °F 38.5 °F 29.48 in SW 2.5 mph 8 mph 85% 0.00 in 0 W/m2
05:59 42.8 °F 38.7 °F 29.48 in SW 1.8 mph 6 mph 85% 0.00 in 0 W/m2
06:04 42.6 °F 38.5 °F 29.48 in SW 1.8 mph 6 mph 85% 0.00 in 0 W/m2
06:09 42.4 °F 38.3 °F 29.48 in SW 3.2 mph 9 mph 85% 0.00 in 0 W/m2
06:14 42.4 °F 38.3 °F 29.48 in SW 0.4 mph 5 mph 85% 0.00 in 0 W/m2
06:19 42.3 °F 38.2 °F 29.48 in SW 0.8 mph 3 mph 85% 0.00 in 0 W/m2
06:24 42.1 °F 37.9 °F 29.48 in SW 1 mph 4 mph 85% 0.00 in 0 W/m2
06:28 41.8 °F 37.8 °F 29.49 in SW 4.3 mph 6 mph 85% 0.00 in 0 W/m2
06:34 41.6 °F 37.6 °F 29.49 in SW 3.6 mph 8 mph 85.6% 0.00 in 0 W/m2
06:39 41.5 °F 37.6 °F 29.49 in Calm     86% 0.00 in 0 W/m2
06:44 41.4 °F 37.6 °F 29.49 in SW 2.4 mph 5 mph 86% 0.00 in 0 W/m2
06:49 41.4 °F 37.6 °F 29.49 in SW 1.2 mph 6 mph 86.2% 0.00 in 0 W/m2
06:54 41.4 °F 37.8 °F 29.49 in SW 0.8 mph 6 mph 87% 0.00 in 0 W/m2
06:59 41.4 °F 37.8 °F 29.49 in SW 3.3 mph 7 mph 87% 0.00 in 0 W/m2
07:04 41.3 °F 37.7 °F 29.49 in SW 0.2 mph 3 mph 87% 0.00 in 0 W/m2
07:09 41.2 °F 37.6 °F 29.49 in SW 0.6 mph 3 mph 87% 0.00 in 0 W/m2
07:14 41.2 °F 37.6 °F 29.49 in Calm   4 mph 87% 0.00 in 0 W/m2
07:19 41.2 °F 37.6 °F 29.49 in SW 3.5 mph 8 mph 87% 0.00 in 0 W/m2
07:24 41 °F 37.4 °F 29.49 in Calm   8 mph 87% 0.00 in 0 W/m2
07:29 40.8 °F 37.4 °F 29.50 in SW 0.8 mph 5 mph 87.4% 0.00 in 0 W/m2
07:34 40.6 °F 37.3 °F 29.50 in SW 1.2 mph 5 mph 87.8% 0.00 in 0 W/m2
07:39 40.7 °F 37.5 °F 29.50 in Calm   3 mph 88% 0.00 in 0 W/m2
07:44 41 °F 37.8 °F 29.50 in Calm     88% 0.00 in 0 W/m2
07:49 40.8 °F 37.6 °F 29.50 in SW 0.4 mph 2 mph 88% 0.00 in 0 W/m2
07:54 40.5 °F 37.2 °F 29.51 in SW 4.6 mph 11 mph 88% 0.00 in 0 W/m2
07:59 40.5 °F 37.3 °F 29.51 in WSW 1.6 mph 8 mph 88% 0.00 in 0 W/m2
08:03 40.5 °F 37.3 °F 29.51 in WSW 4.5 mph 10 mph 88.3% 0.00 in 0 W/m2
08:09 40.8 °F 37.8 °F 29.51 in WSW 0.8 mph 10 mph 89% 0.00 in 0 W/m2
08:14 40.9 °F 37.9 °F 29.51 in WSW 3.4 mph 9 mph 89% 0.00 in 0 W/m2
08:19 40.8 °F 37.8 °F 29.52 in WSW 4.5 mph 7 mph 89% 0.00 in 0 W/m2
08:24 40.9 °F 37.8 °F 29.52 in WSW 1.2 mph 6 mph 89% 0.00 in 7 W/m2
08:29 40.8 °F 37.8 °F 29.52 in WSW 1.4 mph 5 mph 89% 0.00 in 9 W/m2
08:34 40.7 °F 37.7 °F 29.52 in Calm   1 mph 89% 0.00 in 9 W/m2
08:39 40.6 °F 37.6 °F 29.52 in Calm     89% 0.00 in 11 W/m2
08:44 40.5 °F 37.3 °F 29.52 in Calm     88.4% 0.00 in 12 W/m2
08:49 40.3 °F 37.2 °F 29.53 in Calm     88.8% 0.00 in 14 W/m2
08:54 40.3 °F 37.2 °F 29.53 in Calm     89% 0.00 in 18 W/m2
08:58 40.3 °F 37.2 °F 29.53 in Calm   1 mph 89% 0.00 in 19 W/m2
09:04 40.2 °F 37.1 °F 29.53 in WSW 2 mph 4 mph 89% 0.00 in 23 W/m2
09:09 40.1 °F 37 °F 29.53 in WSW 1.2 mph 4 mph 89% 0.00 in 26 W/m2
09:14 40.3 °F 37.2 °F 29.53 in WSW 1.8 mph 4 mph 89% 0.00 in 30 W/m2
09:19 40.4 °F 37.4 °F 29.53 in WSW 3.6 mph 5 mph 89.2% 0.00 in 35 W/m2
09:24 40.6 °F 37.9 °F 29.53 in WSW 2.4 mph 5 mph 90% 0.00 in 37 W/m2
09:29 40.6 °F 37.9 °F 29.53 in WSW 0.2 mph 3 mph 90% 0.00 in 39 W/m2
09:33 40.6 °F 37.9 °F 29.53 in Calm   3 mph 90% 0.00 in 40 W/m2
09:39 40.7 °F 38 °F 29.53 in Calm   2 mph 90% 0.00 in 40 W/m2
09:44 40.8 °F 38.1 °F 29.53 in WSW 1.4 mph 3 mph 90% 0.00 in 44 W/m2
09:49 40.8 °F 38.1 °F 29.54 in WSW 0.8 mph 4 mph 90% 0.00 in 46 W/m2
09:54 41.1 °F 38.4 °F 29.54 in WSW 0.4 mph 4 mph 90% 0.00 in 53 W/m2
09:59 41 °F 38.3 °F 29.54 in Calm   4 mph 90% 0.00 in 53 W/m2
10:04 41 °F 38.3 °F 29.54 in Calm   1 mph 90% 0.00 in 53 W/m2
10:09 41.2 °F 38.5 °F 29.54 in Calm   1 mph 90% 0.00 in 58 W/m2
10:14 41.2 °F 38.5 °F 29.54 in Calm     90% 0.00 in 63 W/m2
10:19 41.4 °F 38.7 °F 29.54 in Calm     90% 0.00 in 67 W/m2
10:24 41.4 °F 38.7 °F 29.54 in Calm     90% 0.00 in 67 W/m2
10:29 41.5 °F 38.8 °F 29.54 in Calm     90% 0.00 in 77 W/m2
10:34 41.7 °F 39 °F 29.54 in Calm     90% 0.00 in 77 W/m2
10:39 41.9 °F 39.2 °F 29.54 in Calm     90% 0.00 in 79 W/m2
10:44 42.1 °F 39.4 °F 29.54 in Calm     90% 0.00 in 91 W/m2
10:49 42.2 °F 39.5 °F 29.54 in Calm     90% 0.00 in 91 W/m2
10:54 42.3 °F 39.7 °F 29.54 in Calm     90% 0.00 in 107 W/m2
10:59 42.5 °F 39.9 °F 29.54 in Calm   1 mph 90.2% 0.00 in 105 W/m2
11:04 42.7 °F 40 °F 29.54 in Calm     90% 0.00 in 104 W/m2
11:09 43.1 °F 40.5 °F 29.54 in Calm     90.4% 0.00 in 104 W/m2
11:14 43.3 °F 40.8 °F 29.54 in Calm     91% 0.00 in 107 W/m2
11:19 43.5 °F 40.8 °F 29.54 in Calm     90.2% 0.00 in 109 W/m2
11:24 43.7 °F 41 °F 29.54 in Calm     90% 0.00 in 127 W/m2
11:29 43.8 °F 41.1 °F 29.53 in Calm   1 mph 90% 0.00 in 137 W/m2
11:34 44.1 °F 41.3 °F 29.53 in Calm     90% 0.00 in 141 W/m2
11:39 44.2 °F 41.5 °F 29.53 in Calm   1 mph 90% 0.00 in 102 W/m2
11:44 44.6 °F 41.9 °F 29.52 in Calm     90% 0.00 in 107 W/m2
11:49 44.9 °F 42.2 °F 29.52 in Calm     90% 0.00 in 128 W/m2
11:54 45.2 °F 42.5 °F 29.52 in Calm     90% 0.00 in 144 W/m2
11:58 45.8 °F 43 °F 29.52 in WSW 0.3 mph 1 mph 89.8% 0.00 in 125 W/m2
12:04 46 °F 43 °F 29.52 in Calm   1 mph 89% 0.00 in 120 W/m2
12:09 45.9 °F 42.3 °F 29.52 in WSW 0.2 mph 2 mph 87.8% 0.00 in 113 W/m2
12:14 45.7 °F 41.9 °F 29.52 in WSW 0.6 mph 3 mph 86.6% 0.00 in 183 W/m2
12:19 45.9 °F 41.5 °F 29.52 in SW 1 mph 3 mph 84.8% 0.00 in 176 W/m2
12:24 46 °F 41 °F 29.52 in SW 0.8 mph 3 mph 82.4% 0.00 in 148 W/m2
12:29 46.2 °F 40.6 °F 29.52 in SW 2.4 mph 5 mph 81% 0.00 in 209 W/m2
12:34 46.3 °F 40.6 °F 29.52 in SW 1.7 mph 5 mph 80% 0.00 in 155 W/m2
12:39 46.6 °F 40.8 °F 29.52 in SW 0.8 mph 5 mph 80% 0.00 in 229 W/m2
12:44 47 °F 41.1 °F 29.52 in SW 0.9 mph 5 mph 79.4% 0.00 in 193 W/m2
12:49 47.7 °F 41.6 °F 29.52 in SW 1 mph 2 mph 79.4% 0.00 in 200 W/m2
12:54 48.4 °F 42.3 °F 29.52 in SW 2 mph 4 mph 79.4% 0.00 in 195 W/m2
12:58 47.8 °F 41 °F 29.51 in SW 1.2 mph 3 mph 77% 0.00 in 197 W/m2
13:04 48.3 °F 41.9 °F 29.51 in SW 0.4 mph 2 mph 78.2% 0.00 in 195 W/m2
13:09 48.3 °F 41.6 °F 29.51 in SW 2.2 mph 6 mph 77.2% 0.00 in 171 W/m2
13:14 49 °F 42.6 °F 29.51 in SW 0.6 mph 8 mph 78.6% 0.00 in 160 W/m2
13:19 48.6 °F 41.5 °F 29.51 in SW 0.6 mph 3 mph 76.4% 0.00 in 139 W/m2
13:24 48.6 °F 42 °F 29.51 in SW 1.6 mph 6 mph 77.6% 0.00 in 135 W/m2
13:29 49.4 °F 42.8 °F 29.51 in SW 0.7 mph 6 mph 78% 0.00 in 134 W/m2
13:34 49.4 °F 42.6 °F 29.51 in Calm     77.4% 0.00 in 93 W/m2
13:39 49 °F 42.2 °F 29.51 in SSW 3.2 mph 10 mph 77% 0.00 in 97 W/m2
13:44 47.9 °F 41.3 °F 29.51 in South 4.8 mph 10 mph 77.6% 0.00 in 100 W/m2
13:49 47.6 °F 41.3 °F 29.51 in South 5 mph 9 mph 78.8% 0.00 in 114 W/m2
13:54 47.3 °F 41.2 °F 29.50 in South 3.6 mph 9 mph 79% 0.00 in 111 W/m2
13:59 47.7 °F 41.6 °F 29.50 in South 5.6 mph 10 mph 79.8% 0.00 in 125 W/m2
14:04 47.5 °F 41.4 °F 29.50 in South 2.2 mph 8 mph 79% 0.00 in 97 W/m2
14:09 47.5 °F 41.4 °F 29.50 in South 1.2 mph 4 mph 79% 0.00 in 86 W/m2
14:14 47.7 °F 41.5 °F 29.50 in South 3.2 mph 7 mph 79% 0.00 in 84 W/m2
14:19 47.5 °F 41.4 °F 29.50 in South 1.2 mph 6 mph 79% 0.00 in 65 W/m2
14:24 47.4 °F 41.3 °F 29.50 in South 1 mph 6 mph 79% 0.00 in 67 W/m2
14:29 47.2 °F 41.1 °F 29.50 in South 0.2 mph 6 mph 79% 0.00 in 67 W/m2
14:34 47.1 °F 41 °F 29.50 in Calm   1 mph 79% 0.00 in 65 W/m2
14:39 47.3 °F 41.3 °F 29.50 in Calm     79.6% 0.00 in 56 W/m2
14:44 47.5 °F 41.5 °F 29.50 in South 0.8 mph 5 mph 80% 0.00 in 42 W/m2
14:49 47.5 °F 41.5 °F 29.50 in Calm     80% 0.00 in 40 W/m2
14:54 47.5 °F 41.7 °F 29.50 in Calm     80.4% 0.00 in 39 W/m2
14:58 47.5 °F 41.9 °F 29.50 in Calm     81% 0.00 in 39 W/m2
15:04 47.4 °F 41.8 °F 29.50 in Calm     81% 0.00 in 40 W/m2
15:09 47.1 °F 41.5 °F 29.50 in South 0.4 mph 2 mph 81% 0.00 in 37 W/m2
15:14 46.9 °F 41.5 °F 29.50 in Calm   1 mph 81.6% 0.00 in 26 W/m2
15:19 46.5 °F 41.3 °F 29.50 in Calm   1 mph 82% 0.00 in 25 W/m2
15:24 46.2 °F 41 °F 29.50 in Calm   1 mph 82% 0.00 in 19 W/m2
15:29 46 °F 41.2 °F 29.50 in South 0.2 mph 1 mph 83% 0.00 in 16 W/m2
15:34 46 °F 41.2 °F 29.50 in Calm     83% 0.00 in 16 W/m2
15:39 45.9 °F 41.3 °F 29.50 in Calm     83.8% 0.00 in 12 W/m2
15:44 45.7 °F 41.2 °F 29.50 in Calm     84% 0.00 in 11 W/m2
15:49 45.3 °F 40.8 °F 29.50 in Calm     84% 0.00 in 9 W/m2
15:54 45.1 °F 40.7 °F 29.50 in Calm     84.4% 0.00 in 5 W/m2
15:59 45 °F 40.6 °F 29.50 in Calm     85% 0.00 in 0 W/m2
16:04 44.8 °F 40.5 °F 29.50 in Calm     85.2% 0.00 in 0 W/m2
16:09 44.6 °F 40.6 °F 29.50 in Calm     86% 0.00 in 0 W/m2
16:13 44.5 °F 40.6 °F 29.50 in Calm     86% 0.00 in 0 W/m2
16:19 44.4 °F 40.5 °F 29.50 in Calm     86% 0.00 in 0 W/m2
16:24 44.3 °F 40.4 °F 29.49 in Calm     86% 0.00 in 0 W/m2
16:29 44.2 °F 40.4 °F 29.49 in Calm     86.2% 0.00 in 0 W/m2
16:34 44.1 °F 40.2 °F 29.49 in Calm     86.2% 0.00 in 0 W/m2
16:39 43.9 °F 40.3 °F 29.49 in Calm     87% 0.00 in 0 W/m2
16:44 43.7 °F 40.1 °F 29.49 in Calm     87% 0.00 in 0 W/m2
16:49 43.5 °F 39.8 °F 29.50 in Calm     87% 0.00 in 0 W/m2
16:54 43.3 °F 39.7 °F 29.50 in Calm     87.2% 0.00 in 0 W/m2
16:59 43.3 °F 40 °F 29.50 in Calm     88% 0.00 in 0 W/m2
17:04 43.2 °F 39.9 °F 29.50 in Calm     88% 0.00 in 0 W/m2
17:09 43.3 °F 40.1 °F 29.50 in Calm     88% 0.00 in 0 W/m2
17:14 43.2 °F 39.9 °F 29.50 in Calm     88% 0.00 in 0 W/m2
17:19 43.2 °F 39.8 °F 29.49 in Calm     88% 0.00 in 0 W/m2
17:24 43 °F 39.8 °F 29.49 in Calm     88.6% 0.00 in 0 W/m2
17:29 43 °F 39.9 °F 29.49 in Calm     89% 0.00 in 0 W/m2
17:34 42.7 °F 39.6 °F 29.49 in Calm     89% 0.00 in 0 W/m2
17:39 42.6 °F 39.6 °F 29.49 in Calm     89% 0.00 in 0 W/m2
17:44 42.4 °F 39.4 °F 29.49 in Calm     89% 0.00 in 0 W/m2
17:49 42.4 °F 39.4 °F 29.49 in Calm     89% 0.00 in 0 W/m2
17:54 42.4 °F 39.4 °F 29.49 in Calm     89% 0.00 in 0 W/m2
17:59 42.4 °F 39.4 °F 29.49 in Calm     89% 0.00 in 0 W/m2
18:04 42.4 °F 39.6 °F 29.49 in Calm     89.8% 0.00 in 0 W/m2
18:09 42.3 °F 39.6 °F 29.49 in Calm     90% 0.00 in 0 W/m2
18:14 42.3 °F 39.6 °F 29.49 in Calm     90% 0.00 in 0 W/m2
18:19 42.3 °F 39.6 °F 29.49 in Calm     90% 0.00 in 0 W/m2
18:24 42.3 °F 39.6 °F 29.48 in Calm     90% 0.00 in 0 W/m2
18:29 42.3 °F 39.6 °F 29.49 in Calm     90% 0.00 in 0 W/m2
18:34 41.9 °F 39.2 °F 29.49 in Calm     90% 0.00 in 0 W/m2
18:39 41.9 °F 39.2 °F 29.49 in Calm     90% 0.00 in 0 W/m2
18:44 41.9 °F 39.2 °F 29.49 in Calm     90% 0.00 in 0 W/m2
18:48 41.9 °F 39.2 °F 29.49 in Calm     90% 0.00 in 0 W/m2
18:54 41.9 °F 39.2 °F 29.49 in Calm     90% 0.00 in 0 W/m2
18:59 42 °F 39.5 °F 29.49 in Calm     90.8% 0.00 in 0 W/m2
19:04 41.9 °F 39.4 °F 29.48 in Calm     91% 0.00 in 0 W/m2
19:09 41.7 °F 39.2 °F 29.49 in Calm     91% 0.00 in 0 W/m2
19:14 41.7 °F 39.2 °F 29.49 in Calm     91% 0.00 in 0 W/m2
19:19 41.7 °F 39.2 °F 29.49 in Calm     91% 0.00 in 0 W/m2
19:24 41.5 °F 39.2 °F 29.48 in Calm     91% 0.00 in 0 W/m2
19:29 41.5 °F 39.2 °F 29.49 in Calm     91% 0.00 in 0 W/m2
19:34 41.5 °F 39.2 °F 29.49 in Calm     91% 0.00 in 0 W/m2
19:39 41.5 °F 39.2 °F 29.49 in Calm     91% 0.00 in 0 W/m2
19:44 41.5 °F 39.2 °F 29.49 in Calm     91% 0.00 in 0 W/m2
19:49 41.5 °F 39.2 °F 29.49 in Calm     91% 0.00 in 0 W/m2
19:54 41.5 °F 39.2 °F 29.49 in Calm     91% 0.00 in 0 W/m2
19:59 41.5 °F 39.2 °F 29.49 in Calm     91% 0.00 in 0 W/m2
20:04 41.5 °F 39.2 °F 29.49 in Calm     91% 0.00 in 0 W/m2
20:09 41.5 °F 39.3 °F 29.48 in Calm     91.4% 0.00 in 0 W/m2
20:14 41.6 °F 39.3 °F 29.49 in Calm     91.5% 0.00 in 0 W/m2
20:19 41.7 °F 39.5 °F 29.48 in Calm     91.6% 0.00 in 0 W/m2
20:24 41.9 °F 39.7 °F 29.48 in Calm     92% 0.00 in 0 W/m2
20:29 42.1 °F 39.9 °F 29.48 in Calm     92% 0.00 in 0 W/m2
20:34 41.8 °F 39.6 °F 29.48 in Calm     92% 0.00 in 0 W/m2
20:38 41.6 °F 39.5 °F 29.48 in Calm     92% 0.00 in 0 W/m2
20:44 41.6 °F 39.5 °F 29.48 in Calm     92% 0.00 in 0 W/m2
20:49 41.6 °F 39.5 °F 29.48 in Calm     92% 0.00 in 0 W/m2
20:54 41.7 °F 39.6 °F 29.47 in Calm     92% 0.00 in 0 W/m2
20:59 41.7 °F 39.6 °F 29.47 in Calm     92% 0.00 in 0 W/m2
21:04 41.9 °F 39.7 °F 29.47 in Calm     92% 0.00 in 0 W/m2
21:09 42.1 °F 39.9 °F 29.47 in Calm     92% 0.00 in 0 W/m2
21:14 42 °F 39.8 °F 29.47 in Calm     92% 0.00 in 0 W/m2
21:19 41.9 °F 39.7 °F 29.47 in Calm     92% 0.00 in 0 W/m2
21:24 41.7 °F 39.6 °F 29.47 in Calm     92% 0.00 in 0 W/m2
21:29 41.7 °F 39.6 °F 29.47 in Calm     92% 0.00 in 0 W/m2
21:34 41.6 °F 39.5 °F 29.47 in Calm     92% 0.00 in 0 W/m2
21:39 41.5 °F 39.4 °F 29.47 in Calm     92% 0.00 in 0 W/m2
21:44 41.5 °F 39.4 °F 29.47 in Calm     92% 0.00 in 0 W/m2
21:49 41.5 °F 39.4 °F 29.47 in Calm     92% 0.00 in 0 W/m2
21:54 41.5 °F 39.4 °F 29.46 in Calm     92% 0.00 in 0 W/m2
21:59 41.5 °F 39.7 °F 29.46 in Calm     93% 0.00 in 0 W/m2
22:04 41.4 °F 39.6 °F 29.46 in Calm     93% 0.00 in 0 W/m2
22:08 41.4 °F 39.6 °F 29.46 in Calm     93% 0.00 in 0 W/m2
22:14 41.2 °F 39 °F 29.46 in Calm     92% 0.00 in 0 W/m2
22:19 41.2 °F 39.2 °F 29.46 in Calm     92.6% 0.00 in 0 W/m2
22:24 41.2 °F 39.4 °F 29.46 in South 0.4 mph 2 mph 93% 0.00 in 0 W/m2
22:29 41.2 °F 39.4 °F 29.46 in Calm     93% 0.00 in 0 W/m2
22:34 41.2 °F 39.4 °F 29.46 in Calm     93% 0.00 in 0 W/m2
22:39 41.2 °F 39.4 °F 29.46 in Calm     93% 0.00 in 0 W/m2
22:44 41.2 °F 39.4 °F 29.46 in Calm     93% 0.00 in 0 W/m2
22:49 41.2 °F 39.4 °F 29.46 in Calm     93% 0.00 in 0 W/m2
22:54 41.2 °F 39.4 °F 29.46 in Calm     93% 0.00 in 0 W/m2
22:59 41.2 °F 39.4 °F 29.46 in Calm     93% 0.00 in 0 W/m2
23:04 41.2 °F 39.4 °F 29.46 in Calm     93% 0.00 in 0 W/m2
23:09 41.2 °F 39.4 °F 29.46 in Calm     93% 0.00 in 0 W/m2
23:14 41.3 °F 39.5 °F 29.46 in South 0.2 mph 1 mph 93% 0.00 in 0 W/m2
23:19 41.4 °F 39.6 °F 29.46 in Calm     93% 0.00 in 0 W/m2
23:24 41.4 °F 39.6 °F 29.46 in Calm     93% 0.00 in 0 W/m2
23:29 41.4 °F 39.6 °F 29.46 in Calm     93% 0.00 in 0 W/m2
23:34 41.4 °F 39.6 °F 29.46 in Calm     93% 0.00 in 0 W/m2
23:39 41.4 °F 39.6 °F 29.46 in Calm     93% 0.00 in 0 W/m2
23:44 41.4 °F 39.6 °F 29.46 in Calm     93% 0.00 in 0 W/m2
23:49 41.5 °F 39.7 °F 29.46 in Calm     93% 0.00 in 0 W/m2
23:54 41.5 °F 39.7 °F 29.46 in Calm     93% 0.00 in 0 W/m2
23:59 41.5 °F 39.7 °F 29.46 in Calm     93% 0.00 in 0 W/m2
Bath Spa Weather
Compliments of Weather Underground - 2 mb